Latest Weather Observations for Yamba

IDN60801

Issued at 7:02 am EDT Tuesday 21 February 2017 (issued every 30 minutes, with the page automatically refreshed every 10 minutes)

About weather observations | Map of weather stations | Latest weather observations for NSW | Other Formats
Station Details ID: 058012 Name: YAMBA PILOT STATION Lat: -29.43 Lon: 153.36 Height: 27.4 m
Data from the previous 72 hours. | See also: Recent months at Yamba
Date/Time
EDT
Temp
°C
App
Temp
°C
Dew
Point
°C
Rel
Hum
%
Delta-T
°C
Wind Press
QNH
hPa
Press
MSL
hPa
Rain since
9am
mm
Dir  Spd
km/h
Gust
km/h
Spd
kts
Gust
kts
21/07:00am 20.7 22.5 20.4 98 0.2 SSW 11 15 6 8 1016.2 1016.0 -
21/06:30am 20.7 22.5 20.4 98 0.2 SSW 11 13 6 7 1015.8 1015.6 0.0
21/06:00am 20.2 22.2 19.9 98 0.2 SW 9 15 5 8 1015.5 1015.3 0.0
21/05:30am 20.4 22.5 20.1 98 0.2 WSW 9 13 5 7 1015.5 1015.3 0.0
21/05:00am 21.0 23.3 20.7 98 0.2 W 9 13 5 7 1015.1 1014.9 0.0
21/04:30am 21.4 23.9 21.1 98 0.2 SSW 9 13 5 7 1015.0 1014.8 0.0
21/04:00am 21.7 24.4 21.4 98 0.2 WSW 9 13 5 7 1014.7 1014.5 0.0
21/03:30am 21.9 24.6 21.4 97 0.3 WNW 9 11 5 6 1014.6 1014.4 0.0
21/03:00am 22.1 23.9 19.5 85 1.7 WSW 9 13 5 7 1014.9 1014.7 0.0
21/02:30am 22.3 23.7 18.7 80 2.3 W 9 15 5 8 1015.0 1014.8 0.0
21/02:00am 23.6 25.7 19.3 77 2.7 SE 7 11 4 6 1015.3 1015.1 0.0
21/01:30am 24.4 26.4 19.9 76 2.9 ESE 9 13 5 7 1015.5 1015.3 0.0
21/01:00am 24.6 25.7 19.7 74 3.2 ESE 13 17 7 9 1015.5 1015.3 0.0
21/12:30am 24.7 25.6 19.3 72 3.5 ESE 13 17 7 9 1015.6 1015.4 0.0
21/12:00am 24.6 25.7 18.8 70 3.7 E 11 17 6 9 1015.8 1015.6 0.0
 
Date/Time
EDT
Temp
°C
App
Temp
°C
Dew
Point
°C
Rel
Hum
%
Delta-T
°C
Wind Press
QNH
hPa
Press
MSL
hPa
Rain since
9am
mm
Dir  Spd
km/h
Gust
km/h
Spd
kts
Gust
kts
20/11:30pm 24.4 24.6 18.6 70 3.7 ESE 15 19 8 10 1015.7 1015.5 0.0
20/11:00pm 24.4 25.5 18.8 71 3.6 E 11 17 6 9 1015.9 1015.7 0.0
20/10:30pm 24.4 25.0 18.6 70 3.7 E 13 17 7 9 1015.4 1015.2 0.0
20/10:00pm 24.5 25.0 18.4 69 3.9 E 13 19 7 10 1015.1 1014.9 0.0
20/09:30pm 24.5 24.5 18.0 67 4.1 E 15 24 8 13 1014.8 1014.6 0.0
20/09:00pm 24.5 24.5 18.2 68 4.0 E 15 20 8 11 1014.2 1014.0 0.0
20/08:30pm 24.6 23.9 17.3 64 4.5 E 17 24 9 13 1013.7 1013.5 0.0
20/08:00pm 24.7 24.4 17.4 64 4.5 E 15 20 8 11 1013.1 1012.9 0.0
20/07:30pm 24.8 23.8 16.5 60 5.1 E 17 24 9 13 1012.5 1012.3 0.0
20/07:00pm 25.0 24.4 16.7 60 5.1 E 15 22 8 12 1011.9 1011.8 0.0
20/06:30pm 25.5 24.1 15.5 54 6.1 E 17 24 9 13 1011.4 1011.3 0.0
20/06:00pm 25.8 23.8 15.5 53 6.3 E 20 30 11 16 1011.0 1010.9 0.0
20/05:30pm 26.1 23.7 15.5 52 6.4 ESE 22 32 12 17 1010.6 1010.5 0.0
20/05:00pm 26.3 24.6 16.3 54 6.2 E 20 28 11 15 1010.6 1010.5 0.0
20/04:30pm 26.5 24.5 15.5 50 6.7 ESE 20 28 11 15 1010.3 1010.2 0.0
20/04:00pm 26.8 25.6 16.1 52 6.6 ESE 17 26 9 14 1010.2 1010.1 0.0
20/03:30pm 27.1 26.9 19.7 64 4.8 SE 20 28 11 15 1010.1 1010.0 0.0
20/03:00pm 26.6 25.7 19.0 63 4.9 SE 22 28 12 15 1010.3 1010.2 0.0
20/02:30pm 26.5 25.9 18.9 63 4.9 SE 20 26 11 14 1010.6 1010.5 0.0
20/02:00pm 26.4 25.1 17.2 57 5.8 SE 20 30 11 16 1010.9 1010.8 0.0
20/01:30pm 26.0 23.8 16.0 54 6.1 SSE 22 26 12 14 1011.2 1011.1 0.0
20/01:00pm 27.1 25.8 17.3 55 6.2 SSE 20 26 11 14 1011.5 1011.4 0.0
20/12:30pm 27.3 25.7 16.0 50 7.0 SE 19 26 10 14 1011.8 1011.7 0.0
20/12:00pm 27.5 24.9 13.1 41 8.5 SSE 19 26 10 14 1011.9 1011.8 0.0
20/11:30am 26.8 24.2 13.9 45 7.7 SSE 20 30 11 16 1011.9 1011.8 0.0
20/11:00am 25.4 23.8 16.5 58 5.5 SSE 20 26 11 14 1011.9 1011.8 0.0
20/10:30am 26.4 25.7 16.3 53 6.2 SSE 15 20 8 11 1011.9 1011.8 0.0
20/10:00am 25.5 25.6 16.6 58 5.5 SSW 11 19 6 10 1011.9 1011.8 0.0
20/09:30am 25.4 27.2 19.5 70 3.8 SW 9 19 5 10 1011.5 1011.4 0.0
20/09:00am 23.8 25.8 19.9 79 2.5 SW 9 19 5 10 1011.2 1011.1 0.2
20/08:30am 22.4 25.1 21.4 94 0.7 SW 9 15 5 8 1010.8 1010.7 0.2
20/08:00am 21.7 24.4 21.4 98 0.2 WSW 9 13 5 7 1010.7 1010.6 0.2
20/07:30am 21.3 23.8 21.0 98 0.2 W 9 15 5 8 1010.1 1010.0 0.2
20/07:00am 20.8 23.0 20.5 98 0.2 W 9 13 5 7 1009.5 1009.4 0.2
20/06:30am 21.0 23.7 20.7 98 0.2 W 7 11 4 6 1008.9 1008.8 0.2
20/06:00am 20.8 23.4 20.5 98 0.2 W 7 9 4 5 1008.5 1008.4 0.2
20/05:30am 20.7 22.9 20.4 98 0.2 SSE 9 11 5 6 1007.9 1007.8 0.2
20/05:00am 20.7 23.3 20.4 98 0.2 SW 7 9 4 5 1007.7 1007.6 0.2
20/04:30am 20.7 23.3 20.4 98 0.2 SSW 7 9 4 5 1007.7 1007.6 0.2
20/04:00am 20.7 23.9 20.4 98 0.2 W 4 11 2 6 1007.6 1007.5 0.2
20/03:30am 20.7 23.3 20.4 98 0.2 W 7 11 4 6 1006.7 1006.6 0.2
20/03:00am 20.7 21.0 20.4 98 0.2 W 19 26 10 14 1006.7 1006.6 0.2
20/02:30am 20.8 22.3 20.5 98 0.2 WNW 13 24 7 13 1006.7 1006.6 0.2
20/02:00am 21.0 22.6 20.8 99 0.1 NW 13 22 7 12 1007.1 1007.0 0.2
20/01:30am 21.0 22.6 20.8 99 0.1 NNW 13 20 7 11 1007.1 1007.0 0.2
20/01:00am 21.8 25.0 21.6 99 0.1 NNW 7 13 4 7 1007.4 1007.3 0.2
20/12:30am 22.0 24.9 21.8 99 0.1 W 9 13 5 7 1008.7 1008.6 0.2
20/12:00am 22.1 25.4 21.9 99 0.1 W 7 11 4 6 1009.1 1009.0 0.2
 
Date/Time
EDT
Temp
°C
App
Temp
°C
Dew
Point
°C
Rel
Hum
%
Delta-T
°C
Wind Press
QNH
hPa
Press
MSL
hPa
Rain since
9am
mm
Dir  Spd
km/h
Gust
km/h
Spd
kts
Gust
kts
19/11:30pm 22.1 25.0 21.8 98 0.2 WSW 9 15 5 8 1009.3 1009.2 0.2
19/11:00pm 22.8 24.9 22.5 98 0.2 NW 15 28 8 15 1009.4 1009.3 0.2
19/10:30pm 23.0 26.8 22.7 98 0.2 NNW 7 11 4 6 1008.8 1008.7 0.2
19/10:00pm 23.0 26.8 22.7 98 0.2 NW 7 9 4 5 1008.7 1008.6 0.2
19/09:30pm 23.3 27.1 22.8 97 0.3 NNW 7 11 4 6 1008.2 1008.1 0.2
19/09:00pm 23.4 27.2 22.7 96 0.5 NNW 7 9 4 5 1007.5 1007.4 0.0
19/08:30pm 23.8 27.7 22.6 93 0.8 NNE 6 9 3 5 1006.9 1006.8 0.0
19/08:00pm 23.6 27.2 22.0 91 1.1 NE 6 7 3 4 1006.4 1006.3 0.0
19/07:30pm 24.0 27.4 21.7 87 1.5 NNE 6 7 3 4 1006.2 1006.1 0.0
19/07:00pm 24.1 28.7 21.8 87 1.5 CALM 0 0 0 0 1006.1 1006.0 0.0
19/06:30pm 24.3 27.7 21.6 85 1.8 NNW 6 7 3 4 1005.7 1005.6 0.0
19/06:00pm 24.8 28.1 21.5 82 2.2 NNW 6 7 3 4 1005.5 1005.4 0.0
19/05:30pm 25.1 28.6 21.8 82 2.2 NNW 6 9 3 5 1005.7 1005.6 0.0
19/05:00pm 24.8 28.4 22.1 85 1.8 NW 6 9 3 5 1005.5 1005.4 0.0
19/04:30pm 24.7 28.2 21.8 84 1.9 ENE 6 9 3 5 1005.1 1005.0 0.0
19/04:00pm 24.8 28.0 21.3 81 2.3 NE 6 11 3 6 1005.4 1005.3 0.0
19/03:30pm 24.4 27.4 21.3 83 2.0 E 7 13 4 7 1005.2 1005.1 0.0
19/03:00pm 25.6 28.8 21.3 77 2.9 ENE 6 9 3 5 1005.8 1005.7 0.0
19/02:30pm 26.2 29.4 21.6 76 3.1 N 7 11 4 6 1006.0 1005.9 0.0
19/02:00pm 27.5 30.7 20.6 66 4.6 WSW 4 7 2 4 1006.3 1006.2 0.0
19/01:30pm 26.7 28.7 20.8 70 3.9 W 11 20 6 11 1006.6 1006.5 0.0
19/01:00pm 26.3 29.6 21.5 75 3.2 NNW 6 7 3 4 1006.8 1006.7 0.0
19/12:30pm 25.7 28.4 20.7 74 3.3 N 7 11 4 6 1006.4 1006.3 0.0
19/12:00pm 26.5 29.5 20.8 71 3.8 NNW 6 9 3 5 1006.5 1006.4 0.0
19/11:30am 26.4 29.1 21.4 74 3.3 NW 9 11 5 6 1006.6 1006.5 0.0
19/11:00am 25.5 28.0 20.3 73 3.4 NNW 7 9 4 5 1006.5 1006.4 0.0
19/10:30am 25.5 28.0 20.3 73 3.4 NNW 7 11 4 6 1006.6 1006.5 0.0
19/10:00am 24.8 26.6 20.3 76 2.9 NNW 11 20 6 11 1006.6 1006.5 0.0
19/09:30am 23.5 24.7 20.0 81 2.3 NNW 13 20 7 11 1006.7 1006.6 0.0
19/09:00am 23.0 25.1 20.1 84 1.9 NNW 9 13 5 7 1006.5 1006.4 0.0
19/08:30am 23.0 24.9 20.5 86 1.6 N 11 19 6 10 1006.4 1006.3 0.0
19/08:00am 23.0 25.6 19.2 79 2.4 N 4 9 2 5 1005.9 1005.8 0.0
19/07:30am 23.8 26.3 20.3 81 2.3 N 7 13 4 7 1006.4 1006.3 0.0
19/07:00am 24.4 25.9 18.1 68 4.0 SSW 7 9 4 5 1005.4 1005.3 0.0
19/06:30am 24.3 25.5 18.2 68 3.8 WNW 9 11 5 6 1005.8 1005.7 0.0
19/06:00am 24.0 25.5 18.0 69 3.8 WNW 7 13 4 7 1005.2 1005.1 0.0
19/05:30am 23.8 25.0 18.2 71 3.5 NNW 9 22 5 12 1004.9 1004.8 0.0
19/05:00am 24.4 25.6 18.3 69 3.9 WNW 9 15 5 8 1005.2 1005.1 0.0
19/04:30am 24.9 23.7 18.4 67 4.1 NW 22 33 12 18 1005.1 1005.0 0.0
19/04:00am 25.5 23.5 19.2 68 4.1 NNW 28 46 15 25 1004.8 1004.7 0.0
19/03:58am 25.3 23.1 18.7 67 4.2 NW 28 46 15 25 1004.7 1004.6 0.0
19/03:30am 25.3 24.0 19.9 72 3.5 NNW 26 41 14 22 1004.9 1004.8 0.0
19/03:00am 24.6 24.9 20.7 79 2.6 NW 20 32 11 17 1005.3 1005.2 0.0
19/02:30am 23.8 24.1 20.3 81 2.3 NNW 19 30 10 16 1005.1 1005.0 0.0
19/02:00am 23.8 26.4 22.6 93 0.8 N 13 22 7 12 1005.1 1005.0 0.0
19/01:30am 23.7 26.3 22.0 90 1.1 N 11 20 6 11 1006.0 1005.9 0.0
19/01:00am 23.7 26.5 21.6 88 1.4 N 9 13 5 7 1007.1 1007.0 0.0
19/12:30am 23.8 26.9 22.1 90 1.1 NNW 9 13 5 7 1007.7 1007.6 0.0
19/12:00am 24.0 27.7 22.3 90 1.1 N 6 7 3 4 1008.2 1008.1 0.0
 
Date/Time
EDT
Temp
°C
App
Temp
°C
Dew
Point
°C
Rel
Hum
%
Delta-T
°C
Wind Press
QNH
hPa
Press
MSL
hPa
Rain since
9am
mm
Dir  Spd
km/h
Gust
km/h
Spd
kts
Gust
kts
18/11:30pm 24.0 28.2 21.7 87 1.5 NW 2 7 1 4 1008.1 1008.0 0.0
18/11:00pm 24.1 27.0 23.1 94 0.7 NW 13 20 7 11 1008.3 1008.2 0.0
18/10:30pm 23.9 26.7 23.0 95 0.6 N 13 22 7 12 1006.8 1006.7 0.0
18/10:00pm 23.9 26.3 22.9 94 0.7 N 15 28 8 15 1006.2 1006.1 0.0
18/09:30pm 24.1 25.7 22.9 93 0.8 N 19 28 10 15 1005.3 1005.2 0.0
18/09:00pm 24.2 25.6 22.6 91 1.1 N 19 30 10 16 1005.3 1005.2 0.0
18/08:30pm 24.4 25.7 22.3 88 1.4 N 19 32 10 17 1005.5 1005.4 0.0
18/08:00pm 24.6 25.6 22.1 86 1.7 N 20 32 11 17 1005.2 1005.1 0.0
18/07:30pm 24.8 25.6 21.7 83 2.1 N 20 39 11 21 1004.7 1004.6 0.0
18/07:00pm 25.5 26.3 21.8 80 2.5 N 20 41 11 22 1004.2 1004.1 0.0
18/06:30pm 25.8 26.7 21.9 79 2.6 N 20 35 11 19 1004.3 1004.2 0.0
18/06:00pm 26.3 26.8 21.9 77 3.0 N 22 41 12 22 1004.8 1004.7 0.0
18/05:30pm 26.0 26.0 21.7 77 2.9 N 24 43 13 23 1005.1 1005.0 0.0
18/05:00pm 27.1 27.2 21.8 73 3.6 NNE 24 39 13 21 1005.3 1005.2 0.0
18/04:30pm 27.3 27.6 22.3 74 3.4 NNE 24 39 13 21 1005.6 1005.5 0.0
18/04:00pm 28.9 29.2 22.9 70 4.1 NNE 26 39 14 21 1005.8 1005.7 0.0
18/03:30pm 28.9 30.3 22.9 70 4.1 N 20 37 11 20 1006.1 1006.0 0.0
18/03:00pm 28.7 30.6 22.7 70 4.1 N 17 30 9 16 1006.7 1006.6 0.0
18/02:30pm 29.2 30.8 22.9 69 4.3 N 19 37 10 20 1006.9 1006.8 0.0
18/02:00pm 29.2 30.8 22.9 69 4.3 N 19 33 10 18 1007.5 1007.4 0.0
18/01:30pm 29.1 30.7 22.8 69 4.3 N 19 30 10 16 1007.9 1007.8 0.0
18/01:00pm 29.1 31.0 22.8 69 4.3 N 17 24 9 13 1008.3 1008.2 0.0
18/12:30pm 28.7 31.2 23.1 71 3.8 N 15 24 8 13 1008.8 1008.7 0.0
18/12:00pm 27.5 29.4 21.3 69 4.1 NNE 13 20 7 11 1009.4 1009.3 0.0
18/11:30am 28.0 31.0 22.7 73 3.6 NNE 11 17 6 9 1009.9 1009.8 0.0
18/11:00am 26.6 29.0 21.6 74 3.3 NNE 11 19 6 10 1010.0 1009.9 0.0
18/10:30am 27.4 30.8 23.4 79 2.7 NNE 11 17 6 9 1010.3 1010.2 0.0
18/10:00am 26.0 29.1 21.4 76 3.1 NNE 7 11 4 6 1010.7 1010.6 0.0
18/09:30am 25.5 29.2 22.6 84 2.0 N 7 11 4 6 1011.0 1010.9 0.0
18/09:00am 24.7 28.6 22.9 90 1.2 N 7 13 4 7 1011.2 1011.1 0.0
18/08:30am 23.0 26.7 22.5 97 0.3 NNW 7 11 4 6 1011.0 1010.9 0.0
18/08:00am 22.2 25.2 21.9 98 0.2 NW 9 13 5 7 1010.7 1010.6 0.0
18/07:30am 21.4 24.0 21.2 99 0.1 NW 9 13 5 7 1010.4 1010.3 0.0

Other Formats:

Comma delimited format used in spreadsheet applications
http://www.bom.gov.au/fwo/IDN60801/IDN60801.94589.axf

JavaScript Object Notation format (JSON) in row-major order
http://www.bom.gov.au/fwo/IDN60801/IDN60801.94589.json